sensor_id;sensor_type;location;lat;lon;timestamp;P1;durP1;ratioP1;P2;durP2;ratioP2
19374;SDS011;9823;50.936;4.046;2023-07-31T20:01:51;4.90;;;3.67;;
19374;SDS011;9823;50.936;4.046;2023-07-31T20:04:28;7.33;;;4.20;;
19374;SDS011;9823;50.936;4.046;2023-07-31T20:06:56;6.13;;;3.63;;
19374;SDS011;9823;50.936;4.046;2023-07-31T20:09:22;4.70;;;3.13;;
19374;SDS011;9823;50.936;4.046;2023-07-31T20:11:48;4.23;;;2.83;;
19374;SDS011;9823;50.936;4.046;2023-07-31T20:14:14;4.20;;;2.70;;
19374;SDS011;9823;50.936;4.046;2023-07-31T20:16:40;3.70;;;2.47;;
19374;SDS011;9823;50.936;4.046;2023-07-31T20:19:06;4.30;;;2.57;;
19374;SDS011;9823;50.936;4.046;2023-07-31T20:21:32;3.57;;;2.20;;
19374;SDS011;9823;50.936;4.046;2023-07-31T20:23:58;3.43;;;2.27;;
19374;SDS011;9823;50.936;4.046;2023-07-31T20:26:25;3.90;;;2.30;;
19374;SDS011;9823;50.936;4.046;2023-07-31T20:28:51;3.17;;;2.17;;
19374;SDS011;9823;50.936;4.046;2023-07-31T20:31:17;4.67;;;2.20;;
19374;SDS011;9823;50.936;4.046;2023-07-31T20:33:43;4.00;;;2.13;;
19374;SDS011;9823;50.936;4.046;2023-07-31T20:36:09;6.43;;;2.17;;
19374;SDS011;9823;50.936;4.046;2023-07-31T20:38:35;4.33;;;2.30;;
19374;SDS011;9823;50.936;4.046;2023-07-31T20:41:04;2.67;;;2.00;;
19374;SDS011;9823;50.936;4.046;2023-07-31T20:43:30;4.03;;;2.47;;
19374;SDS011;9823;50.936;4.046;2023-07-31T20:45:56;4.70;;;2.67;;
19374;SDS011;9823;50.936;4.046;2023-07-31T20:48:22;5.97;;;2.60;;
19374;SDS011;9823;50.936;4.046;2023-07-31T20:50:48;5.50;;;3.00;;
19374;SDS011;9823;50.936;4.046;2023-07-31T20:53:14;5.73;;;3.03;;
19374;SDS011;9823;50.936;4.046;2023-07-31T20:55:42;4.83;;;2.77;;
19374;SDS011;9823;50.936;4.046;2023-07-31T20:58:11;5.93;;;2.57;;
19374;SDS011;9823;50.936;4.046;2023-07-31T21:00:37;4.17;;;2.00;;
19374;SDS011;9823;50.936;4.046;2023-07-31T21:03:04;4.50;;;2.23;;
19374;SDS011;9823;50.936;4.046;2023-07-31T21:05:30;3.90;;;2.07;;
19374;SDS011;9823;50.936;4.046;2023-07-31T21:07:56;6.10;;;1.90;;
19374;SDS011;9823;50.936;4.046;2023-07-31T21:10:22;2.57;;;1.50;;
19374;SDS011;9823;50.936;4.046;2023-07-31T21:12:48;3.23;;;1.67;;
19374;SDS011;9823;50.936;4.046;2023-07-31T21:15:14;2.47;;;1.50;;
19374;SDS011;9823;50.936;4.046;2023-07-31T21:17:41;4.43;;;1.40;;
19374;SDS011;9823;50.936;4.046;2023-07-31T21:20:09;2.90;;;1.40;;
19374;SDS011;9823;50.936;4.046;2023-07-31T21:22:37;3.53;;;1.30;;
19374;SDS011;9823;50.936;4.046;2023-07-31T21:25:06;2.50;;;1.50;;
19374;SDS011;9823;50.936;4.046;2023-07-31T21:27:32;2.53;;;1.33;;
19374;SDS011;9823;50.936;4.046;2023-07-31T21:29:58;4.13;;;1.50;;
19374;SDS011;9823;50.936;4.046;2023-07-31T21:32:24;5.73;;;1.40;;
19374;SDS011;9823;50.936;4.046;2023-07-31T21:34:50;1.67;;;1.30;;
19374;SDS011;9823;50.936;4.046;2023-07-31T21:37:16;4.67;;;1.40;;
19374;SDS011;9823;50.936;4.046;2023-07-31T21:39:43;3.20;;;1.40;;
19374;SDS011;9823;50.936;4.046;2023-07-31T21:42:09;2.37;;;1.40;;
19374;SDS011;9823;50.936;4.046;2023-07-31T21:44:35;2.97;;;1.37;;
19374;SDS011;9823;50.936;4.046;2023-07-31T21:47:01;2.67;;;1.13;;
19374;SDS011;9823;50.936;4.046;2023-07-31T21:49:29;2.67;;;1.30;;
19374;SDS011;9823;50.936;4.046;2023-07-31T21:51:55;2.47;;;1.57;;
19374;SDS011;9823;50.936;4.046;2023-07-31T21:54:23;2.57;;;1.50;;
19374;SDS011;9823;50.936;4.046;2023-07-31T21:56:50;5.70;;;1.53;;
19374;SDS011;9823;50.936;4.046;2023-07-31T21:59:16;4.87;;;1.23;;
19374;SDS011;9823;50.936;4.046;2023-07-31T22:01:42;2.87;;;1.17;;
19374;SDS011;9823;50.936;4.046;2023-07-31T22:04:08;4.30;;;1.50;;
19374;SDS011;9823;50.936;4.046;2023-07-31T22:06:36;3.10;;;1.70;;
19374;SDS011;9823;50.936;4.046;2023-07-31T22:09:06;3.53;;;1.70;;
19374;SDS011;9823;50.936;4.046;2023-07-31T22:11:32;5.30;;;2.00;;
19374;SDS011;9823;50.936;4.046;2023-07-31T22:13:58;4.60;;;1.67;;
19374;SDS011;9823;50.936;4.046;2023-07-31T22:16:29;3.63;;;1.60;;
19374;SDS011;9823;50.936;4.046;2023-07-31T22:18:55;4.77;;;2.00;;
19374;SDS011;9823;50.936;4.046;2023-07-31T22:21:21;5.17;;;2.00;;
19374;SDS011;9823;50.936;4.046;2023-07-31T22:23:48;5.93;;;1.80;;
19374;SDS011;9823;50.936;4.046;2023-07-31T22:26:14;7.20;;;1.80;;
19374;SDS011;9823;50.936;4.046;2023-07-31T22:28:40;5.63;;;1.80;;
19374;SDS011;9823;50.936;4.046;2023-07-31T22:31:06;4.70;;;1.90;;
19374;SDS011;9823;50.936;4.046;2023-07-31T22:33:35;3.97;;;1.70;;
19374;SDS011;9823;50.936;4.046;2023-07-31T22:36:01;7.10;;;2.00;;
19374;SDS011;9823;50.936;4.046;2023-07-31T22:38:27;7.13;;;2.17;;
19374;SDS011;9823;50.936;4.046;2023-07-31T22:40:53;5.20;;;1.77;;
19374;SDS011;9823;50.936;4.046;2023-07-31T22:43:19;6.00;;;1.80;;
19374;SDS011;9823;50.936;4.046;2023-07-31T22:45:45;6.30;;;1.80;;
19374;SDS011;9823;50.936;4.046;2023-07-31T22:48:11;4.63;;;1.80;;
19374;SDS011;9823;50.936;4.046;2023-07-31T22:50:39;6.47;;;1.70;;
19374;SDS011;9823;50.936;4.046;2023-07-31T22:53:05;7.00;;;1.90;;
19374;SDS011;9823;50.936;4.046;2023-07-31T22:55:31;5.53;;;1.80;;
19374;SDS011;9823;50.936;4.046;2023-07-31T22:57:58;4.90;;;1.70;;
19374;SDS011;9823;50.936;4.046;2023-07-31T23:00:24;4.40;;;1.70;;
19374;SDS011;9823;50.936;4.046;2023-07-31T23:02:52;6.13;;;1.90;;
19374;SDS011;9823;50.936;4.046;2023-07-31T23:05:18;5.60;;;1.60;;
19374;SDS011;9823;50.936;4.046;2023-07-31T23:07:44;3.73;;;1.70;;
19374;SDS011;9823;50.936;4.046;2023-07-31T23:10:10;5.10;;;1.90;;
19374;SDS011;9823;50.936;4.046;2023-07-31T23:12:39;3.93;;;1.70;;
19374;SDS011;9823;50.936;4.046;2023-07-31T23:15:07;3.67;;;1.60;;
19374;SDS011;9823;50.936;4.046;2023-07-31T23:17:33;3.50;;;1.70;;
19374;SDS011;9823;50.936;4.046;2023-07-31T23:20:02;7.43;;;1.80;;
19374;SDS011;9823;50.936;4.046;2023-07-31T23:22:30;3.90;;;1.90;;
19374;SDS011;9823;50.936;4.046;2023-07-31T23:24:57;5.47;;;2.00;;
19374;SDS011;9823;50.936;4.046;2023-07-31T23:27:23;4.73;;;2.20;;
19374;SDS011;9823;50.936;4.046;2023-07-31T23:29:49;6.80;;;2.07;;
19374;SDS011;9823;50.936;4.046;2023-07-31T23:32:15;2.93;;;1.90;;
19374;SDS011;9823;50.936;4.046;2023-07-31T23:34:41;5.67;;;2.20;;
19374;SDS011;9823;50.936;4.046;2023-07-31T23:37:08;4.80;;;1.70;;
19374;SDS011;9823;50.936;4.046;2023-07-31T23:39:34;10.10;;;2.20;;
19374;SDS011;9823;50.936;4.046;2023-07-31T23:42:00;7.10;;;2.00;;
19374;SDS011;9823;50.936;4.046;2023-07-31T23:44:26;7.27;;;2.27;;
19374;SDS011;9823;50.936;4.046;2023-07-31T23:46:52;4.97;;;2.00;;
19374;SDS011;9823;50.936;4.046;2023-07-31T23:49:18;7.50;;;2.20;;
19374;SDS011;9823;50.936;4.046;2023-07-31T23:51:44;4.73;;;2.40;;
19374;SDS011;9823;50.936;4.046;2023-07-31T23:54:10;5.63;;;2.27;;
19374;SDS011;9823;50.936;4.046;2023-07-31T23:56:43;7.27;;;2.53;;
19374;SDS011;9823;50.936;4.046;2023-07-31T23:59:11;5.63;;;2.40;;
